Time;durP1;ratioP1;P1;durP2;ratioP2;P2;SDS_P1;SDS_P2;PMS_P1;PMS_P2;Temp;Humidity;BMP_temperature;BMP_pressure;BME280_temperature;BME280_humidity;BME280_pressure;Samples;Min_cycle;Max_cycle;Signal;HPM_P1;HPM_P2
2020/12/27 00:00:17;;;;;;;140.57;58.68;;;;;;;-5.91;80.67;98532.91;1734565;82;20879;-73
2020/12/27 00:02:42;;;;;;;134.90;57.58;;;;;;;-6.00;80.34;98530.25;1734625;82;21161;-73
2020/12/27 00:05:08;;;;;;;144.28;62.17;;;;;;;-5.97;80.45;98533.08;1734605;82;21057;-73
2020/12/27 00:10:18;;;;;;;133.67;58.50;;;;;;;-5.90;80.26;98512.12;1888377;76;22656;-73
2020/12/27 00:12:43;;;;;;;127.62;54.27;;;;;;;-5.97;80.18;98515.92;1853890;77;21023;-73
2020/12/27 00:15:09;;;;;;;132.50;56.28;;;;;;;-5.98;80.24;98508.50;1853869;77;21361;-73
2020/12/27 00:17:35;;;;;;;125.60;52.67;;;;;;;-6.00;80.47;98514.41;1820950;77;20853;-73
2020/12/27 00:20:04;;;;;;;126.65;47.95;;;;;;;-5.95;80.23;98513.94;1853845;77;21581;-73
2020/12/27 00:22:28;;;;;;;107.80;42.83;;;;;;;-6.05;80.22;98509.31;1853417;77;21028;-73
2020/12/27 00:24:54;;;;;;;107.15;46.53;;;;;;;-6.13;80.21;98507.48;1853759;77;20928;-73
2020/12/27 00:27:20;;;;;;;114.25;49.18;;;;;;;-6.19;80.38;98509.44;1853871;77;21375;-73
2020/12/27 00:29:46;;;;;;;109.65;48.68;;;;;;;-6.27;81.85;98504.97;1853683;77;20885;-73
2020/12/27 00:32:11;;;;;;;112.70;47.55;;;;;;;-6.17;81.68;98499.55;1853824;77;26583;-73
2020/12/27 00:34:38;;;;;;;114.03;46.77;;;;;;;-6.15;81.33;98495.41;1853738;77;20912;-73
2020/12/27 00:37:04;;;;;;;122.07;51.08;;;;;;;-6.14;80.68;98492.64;1853870;77;21031;-73
2020/12/27 00:39:29;;;;;;;104.67;46.00;;;;;;;-6.19;81.02;98494.11;1853747;77;21191;-73
2020/12/27 00:41:59;;;;;;;128.90;49.35;;;;;;;-6.15;80.85;98490.14;1853754;77;26626;-73
2020/12/27 00:44:25;;;;;;;118.57;48.05;;;;;;;-6.29;80.55;98497.71;1821021;77;21449;-71
2020/12/27 00:46:51;;;;;;;108.70;46.77;;;;;;;-6.30;80.69;98484.20;1853810;77;20900;-72
2020/12/27 00:49:18;;;;;;;100.42;44.20;;;;;;;-6.21;80.47;98489.00;1853791;77;20870;-71
2020/12/27 00:51:44;;;;;;;104.15;43.50;;;;;;;-6.23;81.27;98488.84;1853802;77;21927;-72
2020/12/27 00:54:10;;;;;;;100.95;44.05;;;;;;;-6.23;81.21;98484.37;1853699;77;26873;-71
2020/12/27 00:56:35;;;;;;;99.77;42.95;;;;;;;-6.18;81.12;98489.98;1853784;77;26378;-71
2020/12/27 00:59:01;;;;;;;148.72;59.10;;;;;;;-6.20;80.53;98489.82;1853774;77;21066;-71
2020/12/27 01:01:27;;;;;;;152.78;61.05;;;;;;;-6.29;80.34;98485.02;1853813;77;20888;-71
2020/12/27 01:03:52;;;;;;;108.55;48.28;;;;;;;-6.35;80.57;98479.89;1853677;77;20983;-72
2020/12/27 01:06:27;;;;;;;121.20;51.95;;;;;;;-6.38;80.66;98470.98;1853722;77;20877;-71
2020/12/27 01:08:53;;;;;;;98.00;40.15;;;;;;;-6.43;80.66;98464.04;1853651;77;21032;-73
2020/12/27 01:11:19;;;;;;;103.12;42.78;;;;;;;-6.40;80.37;98457.64;1853794;77;21099;-73
2020/12/27 01:13:45;;;;;;;91.32;36.58;;;;;;;-6.49;81.41;98454.62;1820834;77;21002;-73
2020/12/27 01:16:13;;;;;;;69.30;23.75;;;;;;;-6.46;81.32;98453.00;1853766;77;21182;-73
2020/12/27 01:18:41;;;;;;;78.13;29.33;;;;;;;-6.42;80.76;98453.81;1852567;77;21154;-73
2020/12/27 01:21:07;;;;;;;100.47;46.42;;;;;;;-6.50;80.56;98447.70;1853417;77;21456;-73
2020/12/27 01:23:33;;;;;;;121.55;53.30;;;;;;;-6.65;81.98;98447.52;1853089;77;20975;-73
2020/12/27 01:25:58;;;;;;;110.63;49.88;;;;;;;-6.56;82.80;98448.69;1853197;77;21598;-73
2020/12/27 01:28:24;;;;;;;114.28;48.23;;;;;;;-6.46;82.44;98452.51;1853147;77;21175;-73
2020/12/27 01:30:50;;;;;;;113.55;49.48;;;;;;;-6.46;80.76;98444.59;1853161;77;26854;-73
2020/12/27 01:33:16;;;;;;;114.25;50.83;;;;;;;-6.59;79.72;98434.98;1853136;77;26189;-73
2020/12/27 01:35:45;;;;;;;128.97;51.50;;;;;;;-6.68;80.29;98426.73;1853203;77;20987;-73
2020/12/27 01:38:12;;;;;;;128.32;52.90;;;;;;;-6.74;80.04;98430.03;1853197;77;21555;-73
2020/12/27 01:40:40;;;;;;;120.67;49.05;;;;;;;-6.91;79.67;98428.65;1853183;77;21606;-73
2020/12/27 01:43:05;;;;;;;119.65;52.62;;;;;;;-7.00;79.72;98420.38;1853059;77;21194;-73
2020/12/27 01:45:31;;;;;;;126.30;52.35;;;;;;;-7.01;80.35;98408.16;1853089;77;21512;-73
2020/12/27 01:47:57;;;;;;;107.67;47.60;;;;;;;-6.94;80.08;98401.77;1853106;77;20988;-73
2020/12/27 01:50:23;;;;;;;112.75;46.25;;;;;;;-7.07;80.35;98391.70;1853135;77;20884;-73
2020/12/27 01:52:49;;;;;;;88.25;42.10;;;;;;;-7.04;80.18;98391.38;1853171;77;21946;-73
2020/12/27 01:55:15;;;;;;;86.17;36.42;;;;;;;-7.03;80.28;98383.80;1853063;77;26512;-73
2020/12/27 01:58:04;;;;;;;86.87;35.00;;;;;;;-7.01;79.97;98385.77;1853168;77;21170;-73
2020/12/27 02:00:30;;;;;;;98.80;37.30;;;;;;;-7.07;79.95;98385.11;1822867;77;21127;-73
2020/12/27 02:02:56;;;;;;;91.53;39.13;;;;;;;-7.12;80.12;98387.38;1853157;77;20940;-73
2020/12/27 02:05:23;;;;;;;97.95;39.65;;;;;;;-7.22;80.06;98386.20;1853077;77;21195;-73
2020/12/27 02:07:48;;;;;;;86.00;38.15;;;;;;;-7.19;80.90;98381.92;1853109;77;21119;-73
2020/12/27 02:10:15;;;;;;;81.20;36.33;;;;;;;-7.14;80.64;98374.38;1852976;77;20916;-73
2020/12/27 02:12:41;;;;;;;90.55;41.28;;;;;;;-7.07;80.75;98382.48;1853082;77;21166;-73
2020/12/27 02:15:07;;;;;;;90.38;37.50;;;;;;;-7.04;81.34;98367.66;1853074;77;21031;-73
2020/12/27 02:17:33;;;;;;;90.12;38.42;;;;;;;-6.97;80.60;98371.31;1853083;77;21369;-73
2020/12/27 02:19:59;;;;;;;96.57;39.03;;;;;;;-7.00;80.10;98373.45;1853048;77;21548;-73
2020/12/27 02:22:25;;;;;;;88.30;37.33;;;;;;;-7.06;80.39;98371.45;1853129;77;21146;-73
2020/12/27 02:24:51;;;;;;;76.40;36.35;;;;;;;-7.10;79.87;98368.28;1853052;77;28829;-73
2020/12/27 02:27:16;;;;;;;90.60;39.85;;;;;;;-7.12;79.96;98373.72;1853158;77;20928;-73
2020/12/27 02:29:42;;;;;;;95.05;41.75;;;;;;;-7.08;80.55;98362.39;1853050;77;21538;-73
2020/12/27 02:32:08;;;;;;;94.17;36.03;;;;;;;-7.09;80.38;98354.16;1852983;77;26323;-73
2020/12/27 02:34:34;;;;;;;81.22;35.88;;;;;;;-7.12;80.22;98343.92;1853057;77;26756;-73
2020/12/27 02:37:00;;;;;;;97.15;35.98;;;;;;;-7.07;79.99;98343.45;1853135;77;28234;-73
2020/12/27 02:39:25;;;;;;;82.70;34.25;;;;;;;-7.11;79.74;98344.25;1853080;77;20985;-73
2020/12/27 02:41:51;;;;;;;79.67;33.55;;;;;;;-7.17;79.69;98342.28;1853150;77;21359;-73
2020/12/27 02:44:17;;;;;;;78.47;33.60;;;;;;;-7.19;79.72;98347.67;1853004;77;26894;-73
2020/12/27 02:46:43;;;;;;;82.05;33.45;;;;;;;-7.19;79.99;98340.27;1853095;77;26366;-73
2020/12/27 02:49:09;;;;;;;92.27;37.15;;;;;;;-7.17;80.11;98344.42;1853030;77;21531;-73
2020/12/27 02:51:34;;;;;;;76.53;32.85;;;;;;;-7.17;80.46;98345.73;1853125;77;21011;-73
2020/12/27 02:54:00;;;;;;;71.35;31.70;;;;;;;-7.17;80.12;98335.20;1820160;77;21263;-73
2020/12/27 02:56:27;;;;;;;80.83;33.60;;;;;;;-7.10;79.87;98326.14;1853086;77;26461;-73
2020/12/27 02:58:56;;;;;;;77.85;32.35;;;;;;;-7.15;79.58;98315.28;1853026;77;21608;-73
2020/12/27 03:01:22;;;;;;;82.05;33.90;;;;;;;-7.22;79.19;98309.82;1850769;77;20968;-72
2020/12/27 03:03:48;;;;;;;86.87;35.23;;;;;;;-7.30;79.09;98309.80;1853116;77;21039;-72
2020/12/27 03:06:13;;;;;;;70.97;31.55;;;;;;;-7.36;79.52;98299.89;1853166;77;21265;-73
2020/12/27 03:08:39;;;;;;;80.95;35.35;;;;;;;-7.35;79.46;98304.17;1853107;77;20916;-73
2020/12/27 03:11:05;;;;;;;70.78;33.35;;;;;;;-7.38;79.59;98299.23;1853090;77;26819;-73
2020/12/27 03:13:34;;;;;;;86.12;33.50;;;;;;;-7.40;79.84;98299.39;1853202;77;21195;-73
2020/12/27 03:16:05;;;;;;;72.12;32.28;;;;;;;-7.41;79.98;98295.12;1853134;77;21110;-72
2020/12/27 03:18:31;;;;;;;84.80;33.73;;;;;;;-7.39;79.34;98305.48;1853092;77;21855;-73
2020/12/27 03:20:57;;;;;;;81.95;33.48;;;;;;;-7.48;79.41;98287.52;1852958;77;21452;-72
2020/12/27 03:23:23;;;;;;;67.10;29.55;;;;;;;-7.43;79.66;98285.73;1853028;77;21153;-72
2020/12/27 03:25:49;;;;;;;70.25;30.02;;;;;;;-7.47;79.52;98288.34;1852978;77;20920;-72
2020/12/27 03:28:15;;;;;;;73.00;33.13;;;;;;;-7.48;79.40;98291.47;1853113;77;21150;-72
2020/12/27 03:30:42;;;;;;;78.83;32.55;;;;;;;-7.48;80.22;98288.83;1853021;77;21197;-73
2020/12/27 03:33:08;;;;;;;77.60;32.88;;;;;;;-7.46;79.52;98282.91;1852981;77;21174;-73
2020/12/27 03:35:33;;;;;;;82.25;35.13;;;;;;;-7.50;78.80;98272.88;1852998;77;21027;-73
2020/12/27 03:37:59;;;;;;;66.22;31.25;;;;;;;-7.53;78.79;98264.78;1853047;77;28366;-72
2020/12/27 03:40:25;;;;;;;62.50;28.35;;;;;;;-7.57;79.12;98260.01;1853007;77;27301;-72
2020/12/27 03:42:51;;;;;;;62.35;24.98;;;;;;;-7.64;79.06;98255.86;1820141;77;21179;-72
2020/12/27 03:45:16;;;;;;;65.17;26.70;;;;;;;-7.67;79.52;98243.86;1852930;77;26487;-72
2020/12/27 03:47:42;;;;;;;62.90;26.62;;;;;;;-7.70;79.38;98241.52;1853063;77;26266;-73
2020/12/27 03:50:08;;;;;;;65.05;27.60;;;;;;;-7.79;79.56;98232.45;1852992;77;28077;-72
2020/12/27 03:52:34;;;;;;;70.80;27.45;;;;;;;-7.82;79.63;98238.03;1853092;77;27361;-72
2020/12/27 03:54:59;;;;;;;57.55;25.32;;;;;;;-7.75;79.69;98225.41;1853009;77;21174;-72
2020/12/27 03:57:25;;;;;;;61.15;25.00;;;;;;;-7.75;79.56;98224.09;1852978;77;27026;-73
2020/12/27 03:59:51;;;;;;;57.65;26.42;;;;;;;-7.84;80.01;98208.44;1852983;77;26166;-72
2020/12/27 04:02:17;;;;;;;57.88;26.52;;;;;;;-7.80;80.60;98215.84;1853087;77;28668;-73
2020/12/27 04:04:42;;;;;;;59.77;25.35;;;;;;;-7.74;80.51;98210.44;1853042;77;20884;-72
2020/12/27 04:07:08;;;;;;;55.33;23.38;;;;;;;-7.67;80.35;98216.72;1853021;77;21145;-72
2020/12/27 04:09:34;;;;;;;52.30;22.65;;;;;;;-7.67;80.02;98212.27;1819929;77;26967;-73
2020/12/27 04:12:00;;;;;;;52.08;27.82;;;;;;;-7.62;79.70;98213.59;1853021;77;21115;-72
2020/12/27 04:14:26;;;;;;;76.97;27.67;;;;;;;-7.71;80.09;98214.88;1852958;77;29060;-72
2020/12/27 04:16:52;;;;;;;56.00;24.20;;;;;;;-7.67;80.23;98210.14;1853051;77;21131;-72
2020/12/27 04:19:18;;;;;;;56.10;24.00;;;;;;;-7.58;79.84;98212.30;1853032;77;21406;-72
2020/12/27 04:21:47;;;;;;;70.65;28.07;;;;;;;-7.62;79.03;98205.70;1852948;77;26685;-73
2020/12/27 04:24:14;;;;;;;73.37;29.90;;;;;;;-7.72;78.99;98189.55;1853067;77;21103;-72
2020/12/27 04:26:39;;;;;;;54.25;23.65;;;;;;;-7.72;78.80;98185.60;1853037;77;21126;-73
2020/12/27 04:29:05;;;;;;;52.13;23.00;;;;;;;-7.85;78.79;98174.72;1853031;77;21614;-72
2020/12/27 04:31:31;;;;;;;59.10;27.98;;;;;;;-7.89;78.55;98161.55;1852951;77;21166;-72
2020/12/27 04:33:57;;;;;;;56.20;26.10;;;;;;;-7.94;78.80;98157.77;1852918;77;26734;-73
2020/12/27 04:36:23;;;;;;;61.00;26.90;;;;;;;-8.00;79.20;98154.77;1852989;77;21036;-72
2020/12/27 04:38:49;;;;;;;64.65;25.77;;;;;;;-7.98;79.08;98148.86;1853005;77;21555;-72
2020/12/27 04:41:16;;;;;;;55.45;26.45;;;;;;;-8.00;79.56;98146.06;1853024;77;20873;-72
2020/12/27 04:43:42;;;;;;;62.23;27.93;;;;;;;-8.08;79.24;98151.29;1853038;77;21599;-72
2020/12/27 04:46:10;;;;;;;66.75;30.37;;;;;;;-8.18;78.58;98148.79;1852965;77;21146;-72
2020/12/27 04:48:39;;;;;;;66.75;25.97;;;;;;;-8.20;78.84;98140.70;1853119;77;21091;-72
2020/12/27 04:51:06;;;;;;;47.20;23.60;;;;;;;-8.14;79.23;98143.53;1853135;77;21440;-73
2020/12/27 04:53:36;;;;;;;54.85;26.20;;;;;;;-8.14;78.92;98130.88;1853053;77;21563;-73
2020/12/27 04:56:03;;;;;;;69.47;27.15;;;;;;;-8.21;79.44;98129.36;1853097;77;21167;-72
2020/12/27 04:58:28;;;;;;;63.78;31.70;;;;;;;-8.28;79.87;98115.23;1853166;77;21173;-72
2020/12/27 05:00:59;;;;;;;67.58;31.05;;;;;;;-8.23;79.60;98120.81;1853137;77;26389;-72
2020/12/27 05:03:25;;;;;;;89.70;37.00;;;;;;;-8.17;79.15;98119.37;1853127;77;21520;-72
2020/12/27 05:05:53;;;;;;;65.70;27.05;;;;;;;-8.22;79.55;98128.21;1853152;77;21098;-73
2020/12/27 05:08:19;;;;;;;62.13;27.33;;;;;;;-8.17;79.59;98123.31;1853440;77;21322;-73
2020/12/27 05:10:45;;;;;;;56.20;25.08;;;;;;;-8.16;79.39;98120.52;1853000;77;21015;-73
2020/12/27 05:13:11;;;;;;;61.28;26.60;;;;;;;-8.16;79.42;98127.59;1853179;77;26127;-73
2020/12/27 05:15:38;;;;;;;68.00;29.90;;;;;;;-8.17;79.97;98125.45;1820321;77;21035;-73
2020/12/27 05:18:05;;;;;;;60.60;25.88;;;;;;;-8.14;79.66;98124.30;1853135;77;21115;-73
2020/12/27 05:20:34;;;;;;;73.72;31.00;;;;;;;-8.07;79.46;98134.03;1853118;77;21333;-72
2020/12/27 05:23:01;;;;;;;135.32;52.85;;;;;;;-8.11;78.97;98131.41;1853038;77;21177;-73
2020/12/27 05:25:29;;;;;;;136.25;59.73;;;;;;;-8.14;78.57;98134.82;1853103;77;21472;-73
2020/12/27 05:27:57;;;;;;;139.50;56.02;;;;;;;-8.04;78.97;98136.33;1820564;77;21107;-72
2020/12/27 05:30:28;;;;;;;121.07;51.53;;;;;;;-7.92;79.34;98127.67;1820595;77;21023;-72
2020/12/27 05:32:55;;;;;;;178.25;70.50;;;;;;;-7.91;79.00;98112.22;1853076;77;21910;-72
2020/12/27 05:35:22;;;;;;;219.47;88.90;;;;;;;-7.86;78.98;98120.47;1853036;77;21465;-72
2020/12/27 05:37:49;;;;;;;208.80;81.87;;;;;;;-7.90;78.95;98123.06;1851242;77;21158;-72
2020/12/27 05:40:15;;;;;;;193.35;73.97;;;;;;;-7.89;79.98;98118.13;1853151;77;21489;-73
2020/12/27 05:42:41;;;;;;;158.75;64.22;;;;;;;-7.76;79.63;98117.69;1820365;77;21993;-72
2020/12/27 05:45:19;;;;;;;164.77;60.80;;;;;;;-7.68;79.80;98106.69;1853071;77;21250;-73
2020/12/27 05:47:46;;;;;;;122.82;52.45;;;;;;;-7.68;79.10;98095.33;1852263;77;21123;-73
2020/12/27 05:50:15;;;;;;;109.87;45.52;;;;;;;-7.67;78.83;98094.34;1853018;77;21187;-73
2020/12/27 05:52:46;;;;;;;91.20;40.78;;;;;;;-7.77;79.08;98089.23;1853100;77;21114;-73
2020/12/27 05:55:21;;;;;;;92.67;37.90;;;;;;;-7.65;79.56;98098.13;1852260;77;21235;-73
2020/12/27 05:57:50;;;;;;;63.40;27.80;;;;;;;-7.63;79.30;98095.66;1851652;77;21434;-73
2020/12/27 06:00:24;;;;;;;67.12;30.57;;;;;;;-7.81;77.60;98083.95;1852613;77;21043;-72
2020/12/27 06:02:58;;;;;;;75.15;30.68;;;;;;;-7.82;78.13;98081.48;1853139;77;21524;-73
2020/12/27 06:05:57;;;;;;;65.95;32.73;;;;;;;-7.85;78.41;98080.02;1851704;77;21031;-71
2020/12/27 06:08:33;;;;;;;;;;;;;;;-7.89;78.60;98081.80;1855016;77;21185;-72
2020/12/27 06:11:24;;;;;;;58.68;27.58;;;;;;;-7.95;78.77;98088.52;1852949;77;21187;-73
2020/12/27 06:14:19;;;;;;;58.05;29.40;;;;;;;-7.95;79.29;98089.83;1820113;77;21147;-72
2020/12/27 06:16:50;;;;;;;66.05;32.45;;;;;;;-7.99;79.80;98091.97;1853192;77;21031;-72
2020/12/27 06:19:27;;;;;;;54.93;25.23;;;;;;;-7.90;79.46;98082.30;1853218;77;21548;-72
2020/12/27 06:22:05;;;;;;;40.73;19.15;;;;;;;-7.87;79.12;98080.64;1853220;77;21126;-73
2020/12/27 06:24:34;;;;;;;50.15;21.85;;;;;;;-7.88;78.98;98079.49;1853196;77;21848;-73
2020/12/27 06:27:01;;;;;;;50.00;19.50;;;;;;;-7.86;79.51;98080.15;1853008;77;21103;-73
2020/12/27 06:29:43;;;;;;;58.28;27.87;;;;;;;-7.79;80.10;98083.78;1853066;77;21083;-73
2020/12/27 06:32:09;;;;;;;62.43;28.60;;;;;;;-7.71;79.84;98089.06;1852587;77;21146;-72
2020/12/27 06:34:35;;;;;;;61.35;30.00;;;;;;;-7.61;80.19;98087.09;1793586;77;27444;-73
2020/12/27 06:37:06;;;;;;;60.00;23.92;;;;;;;-7.58;79.26;98082.84;1852994;77;21179;-72
2020/12/27 06:39:31;;;;;;;57.95;29.02;;;;;;;-7.66;78.13;98076.25;1853123;77;21150;-73
2020/12/27 06:42:16;;;;;;;52.17;26.68;;;;;;;-7.74;77.97;98073.11;1820182;77;26800;-73
2020/12/27 06:44:46;;;;;;;51.77;27.42;;;;;;;-7.81;77.85;98070.80;1853156;77;21134;-72
2020/12/27 06:47:12;;;;;;;63.40;29.95;;;;;;;-7.94;78.16;98073.09;1853135;77;21126;-72
2020/12/27 06:49:38;;;;;;;66.00;30.82;;;;;;;-8.00;78.43;98071.09;1853114;77;22449;-72
2020/12/27 06:52:21;;;;;;;69.70;34.30;;;;;;;-7.99;78.87;98066.98;1852934;77;21019;-73
2020/12/27 06:54:50;;;;;;;65.10;30.70;;;;;;;-7.88;78.77;98065.84;1853075;77;21095;-72
2020/12/27 06:57:38;;;;;;;;;;;;;;;-8.02;77.69;98059.92;1855837;77;21027;-73
2020/12/27 07:00:27;;;;;;;50.45;24.57;;;;;;;-8.17;77.44;98054.45;1853175;77;20612;-71
2020/12/27 07:03:18;;;;;;;58.42;26.37;;;;;;;-8.34;77.90;98056.70;1853194;77;21384;-72
2020/12/27 07:05:45;;;;;;;64.05;29.27;;;;;;;-8.40;78.67;98064.76;1833937;77;21599;-72
2020/12/27 07:08:14;;;;;;;66.80;32.42;;;;;;;-8.40;78.64;98062.63;1853082;77;21142;-72
2020/12/27 07:10:42;;;;;;;70.12;35.65;;;;;;;-8.34;78.62;98047.02;1850797;77;21031;-72
2020/12/27 07:13:12;;;;;;;113.83;48.90;;;;;;;-8.26;78.83;98044.41;1853231;77;21126;-72
2020/12/27 07:15:51;;;;;;;187.75;90.07;;;;;;;-8.19;78.66;98051.17;1853043;77;21224;-72
2020/12/27 07:18:22;;;;;;;210.23;87.62;;;;;;;-8.32;77.67;98039.78;1852906;77;21118;-72
2020/12/27 07:20:53;;;;;;;145.53;63.15;;;;;;;-8.34;78.19;98033.87;1852984;77;21154;-73
2020/12/27 07:23:31;;;;;;;139.40;63.13;;;;;;;-8.38;78.00;98028.61;1853083;77;21110;-73
2020/12/27 07:26:01;;;;;;;163.68;71.60;;;;;;;-8.41;78.74;98032.06;1821071;77;21429;-73
2020/12/27 07:28:27;;;;;;;149.68;63.65;;;;;;;-8.36;78.43;98021.41;1853040;77;21153;-72
2020/12/27 07:31:02;;;;;;;142.28;65.65;;;;;;;-8.34;78.95;98019.41;1852874;77;21086;-72
2020/12/27 07:33:31;;;;;;;126.65;60.88;;;;;;;-8.33;78.65;98005.77;1851730;77;21139;-72
2020/12/27 07:36:06;;;;;;;131.40;62.15;;;;;;;-8.36;79.04;97996.44;1853010;77;21472;-72
2020/12/27 07:39:02;;;;;;;140.37;65.70;;;;;;;-8.28;78.39;97994.30;1853161;77;21094;-72
2020/12/27 07:41:34;;;;;;;127.07;58.42;;;;;;;-8.20;78.73;97982.95;1851356;77;21370;-72
2020/12/27 07:44:00;;;;;;;141.00;57.80;;;;;;;-8.22;78.18;97987.05;1852991;77;21099;-73
2020/12/27 07:46:26;;;;;;;143.75;62.65;;;;;;;-8.32;78.20;97987.20;1852994;77;26755;-73
2020/12/27 07:48:52;;;;;;;158.40;70.87;;;;;;;-8.24;78.82;97990.34;1853002;77;21181;-72
2020/12/27 07:51:23;;;;;;;183.10;77.20;;;;;;;-8.14;79.20;97991.02;1852977;77;26887;-73
2020/12/27 07:53:50;;;;;;;182.90;73.62;;;;;;;-8.00;78.92;97989.56;1853072;77;21208;-73
2020/12/27 07:56:24;;;;;;;152.55;66.47;;;;;;;-7.96;78.35;97989.05;1853000;77;21028;-72
2020/12/27 07:58:58;;;;;;;146.70;63.63;;;;;;;-7.90;78.53;97981.02;1853046;77;21111;-73
2020/12/27 08:01:32;;;;;;;153.80;59.83;;;;;;;-7.82;79.10;97980.20;1853037;77;21118;-73
2020/12/27 08:04:00;;;;;;;132.03;56.10;;;;;;;-7.74;79.02;97972.30;1853070;77;21119;-73
2020/12/27 08:06:28;;;;;;;124.07;57.20;;;;;;;-7.65;78.96;97967.86;1852968;77;21320;-72
2020/12/27 08:09:13;;;;;;;183.18;71.70;;;;;;;-7.54;79.28;97961.75;1853061;77;21098;-73
2020/12/27 08:11:43;;;;;;;368.65;128.47;;;;;;;-7.46;79.59;97959.60;1852866;77;21535;-72
2020/12/27 08:14:13;;;;;;;361.68;127.38;;;;;;;-7.32;79.69;97956.30;1853038;77;21135;-72
2020/12/27 08:19:20;;;;;;;261.37;94.85;;;;;;;-7.12;79.12;97952.77;1841991;78;28504;-71
2020/12/27 08:21:47;;;;;;;225.75;78.92;;;;;;;-7.04;79.12;97951.93;1782967;79;21122;-70
2020/12/27 08:24:14;;;;;;;213.90;75.50;;;;;;;-6.90;79.50;97961.77;1783363;79;21190;-71
2020/12/27 08:26:42;;;;;;;172.05;70.75;;;;;;;-6.86;79.52;97963.05;1817102;79;21032;-71
2020/12/27 08:29:23;;;;;;;162.12;64.60;;;;;;;-6.78;79.32;97957.75;1817135;78;21023;-71
2020/12/27 08:31:52;;;;;;;141.88;57.83;;;;;;;-6.65;79.28;97960.67;1817245;78;21461;-73
2020/12/27 08:34:27;;;;;;;130.97;54.25;;;;;;;-6.51;79.44;97954.33;1815744;79;21112;-73
2020/12/27 08:36:52;;;;;;;130.90;57.65;;;;;;;-6.42;79.54;97955.42;1816407;79;21126;-73
2020/12/27 08:39:40;;;;;;;104.27;46.37;;;;;;;-6.28;79.74;97959.14;1817022;78;21099;-73
2020/12/27 08:42:20;;;;;;;98.23;43.13;;;;;;;-6.13;79.35;97958.72;1817202;79;21102;-72
2020/12/27 08:44:56;;;;;;;87.15;38.63;;;;;;;-6.05;79.33;97949.43;1817236;79;22209;-73
2020/12/27 08:47:45;;;;;;;76.90;34.95;;;;;;;-5.89;79.75;97951.09;1817058;78;21467;-73
2020/12/27 08:50:26;;;;;;;81.02;38.95;;;;;;;-5.76;79.23;97931.50;1817330;79;21357;-71
2020/12/27 08:52:55;;;;;;;73.52;40.17;;;;;;;-5.70;78.89;97933.94;1817070;78;21122;-72
2020/12/27 08:55:27;;;;;;;117.00;52.90;;;;;;;-5.56;79.82;97929.17;1817262;79;21487;-73
2020/12/27 08:57:55;;;;;;;66.97;30.62;;;;;;;-5.39;79.60;97924.05;1817104;78;21110;-73
2020/12/27 09:00:21;;;;;;;69.65;31.33;;;;;;;-5.22;79.24;97929.98;1816247;79;21014;-72
2020/12/27 09:02:57;;;;;;;69.42;30.65;;;;;;;-5.18;79.37;97928.63;1817168;79;21417;-72
2020/12/27 09:05:27;;;;;;;70.22;33.95;;;;;;;-5.07;78.97;97925.20;1817088;79;21106;-71
2020/12/27 09:07:53;;;;;;;55.55;29.32;;;;;;;-4.94;79.45;97913.00;1783164;79;21079;-72
2020/12/27 09:10:24;;;;;;;76.57;31.73;;;;;;;-4.74;78.98;97917.20;1817094;78;20956;-73
2020/12/27 09:13:03;;;;;;;73.10;34.18;;;;;;;-4.69;78.80;97923.27;1817115;79;21019;-73
2020/12/27 09:15:49;;;;;;;78.85;40.12;;;;;;;-4.61;79.16;97920.02;1817285;78;21633;-72
2020/12/27 09:18:31;;;;;;;96.20;46.10;;;;;;;-4.50;79.20;97909.95;1782987;79;21142;-72
2020/12/27 09:20:58;;;;;;;100.35;47.98;;;;;;;-4.33;79.10;97896.31;1814341;79;21527;-73
2020/12/27 09:23:24;;;;;;;91.05;40.60;;;;;;;-4.17;78.89;97889.95;1817131;79;21526;-71
2020/12/27 09:26:08;;;;;;;117.75;55.10;;;;;;;-4.06;78.75;97892.09;1817129;78;20989;-73
2020/12/27 09:28:36;;;;;;;85.87;39.90;;;;;;;-4.00;78.12;97882.58;1816564;79;21151;-73
2020/12/27 09:31:13;;;;;;;74.35;35.50;;;;;;;-3.88;78.37;97873.09;1816401;78;21143;-74
2020/12/27 09:33:47;;;;;;;87.70;38.45;;;;;;;-3.67;78.74;97868.28;1816565;79;21043;-73
2020/12/27 09:36:13;;;;;;;78.02;39.53;;;;;;;-3.53;78.71;97862.05;1816542;78;21154;-73
2020/12/27 09:38:43;;;;;;;66.17;31.68;;;;;;;-3.40;78.60;97865.30;1816530;79;20924;-73
2020/12/27 09:41:17;;;;;;;69.60;34.23;;;;;;;-3.34;78.65;97862.36;1816504;78;21590;-71
2020/12/27 09:43:50;;;;;;;63.02;32.25;;;;;;;-3.18;78.71;97848.79;1816487;78;21117;-72
2020/12/27 09:46:46;;;;;;;56.08;28.32;;;;;;;-2.99;78.96;97858.70;1816562;78;21086;-73
2020/12/27 09:49:32;;;;;;;56.68;31.20;;;;;;;-2.87;78.77;97851.80;1816512;79;21012;-72
2020/12/27 09:52:12;;;;;;;70.15;35.08;;;;;;;-2.67;78.01;97847.06;1814769;79;21551;-72
2020/12/27 09:54:42;;;;;;;52.35;28.32;;;;;;;-2.49;78.40;97838.53;1816450;78;21178;-72
2020/12/27 09:57:13;;;;;;;61.48;29.75;;;;;;;-2.33;77.88;97831.52;1816457;78;21035;-75
2020/12/27 09:59:40;;;;;;;42.67;24.60;;;;;;;-2.20;77.67;97816.95;1815225;79;21178;-72
2020/12/27 10:02:06;;;;;;;44.77;22.30;;;;;;;-2.09;76.45;97803.57;1816497;79;21536;-73
2020/12/27 10:04:32;;;;;;;48.05;23.40;;;;;;;-2.00;77.42;97796.52;1816514;78;21008;-73
2020/12/27 10:06:58;;;;;;;59.63;28.00;;;;;;;-1.88;75.95;97789.25;1816526;78;21998;-73
2020/12/27 10:09:24;;;;;;;53.78;28.17;;;;;;;-1.82;76.80;97776.48;1816407;79;21003;-73
2020/12/27 10:11:50;;;;;;;49.18;25.43;;;;;;;-1.73;77.42;97765.42;1816476;78;20928;-72
2020/12/27 10:14:15;;;;;;;53.08;27.65;;;;;;;-1.59;77.71;97768.89;1816425;79;20916;-73
2020/12/27 10:16:42;;;;;;;53.70;26.80;;;;;;;-1.53;76.00;97765.41;1816531;78;21471;-73
2020/12/27 10:19:08;;;;;;;48.10;24.12;;;;;;;-1.50;76.19;97758.84;1816389;78;21158;-73
2020/12/27 10:21:33;;;;;;;48.58;24.10;;;;;;;-1.39;76.95;97748.07;1816416;78;20916;-72
2020/12/27 10:23:59;;;;;;;39.55;19.20;;;;;;;-1.28;76.63;97740.76;1816450;79;20956;-73
2020/12/27 10:26:25;;;;;;;30.75;17.07;;;;;;;-1.17;74.87;97742.27;1816489;78;20893;-73
2020/12/27 10:28:51;;;;;;;31.05;15.08;;;;;;;-1.05;73.50;97740.26;1816483;78;21016;-72
2020/12/27 10:31:17;;;;;;;33.08;14.63;;;;;;;-0.97;72.58;97733.36;1816505;78;21181;-73
2020/12/27 10:33:43;;;;;;;32.17;14.73;;;;;;;-0.87;73.01;97733.20;1816363;79;21166;-74
2020/12/27 10:36:09;;;;;;;29.25;13.68;;;;;;;-0.82;71.82;97711.80;1816490;79;20968;-74
2020/12/27 10:38:35;;;;;;;29.55;14.38;;;;;;;-0.78;70.78;97701.02;1816481;79;20925;-73
2020/12/27 10:41:01;;;;;;;35.25;14.35;;;;;;;-0.70;72.46;97690.11;1816426;79;20965;-73
2020/12/27 10:43:27;;;;;;;27.95;13.10;;;;;;;-0.68;72.72;97684.08;1816446;78;21433;-72
2020/12/27 10:46:03;;;;;;;18.57;9.50;;;;;;;-0.64;71.71;97673.29;1816416;79;20877;-73
2020/12/27 10:48:33;;;;;;;24.70;11.18;;;;;;;-0.59;70.56;97670.29;1816508;79;21036;-73
2020/12/27 10:50:59;;;;;;;;;;;;;;;-0.51;72.14;97661.22;1818872;79;21050;-73
2020/12/27 10:53:24;;;;;;;21.45;11.10;;;;;;;-0.41;71.58;97657.55;1816602;79;20512;-72
2020/12/27 10:55:50;;;;;;;25.65;12.05;;;;;;;-0.32;72.84;97665.55;1816506;78;21242;-72
2020/12/27 10:58:16;;;;;;;32.05;12.68;;;;;;;-0.24;72.58;97655.66;1816409;79;21558;-73
2020/12/27 11:00:45;;;;;;;23.32;11.20;;;;;;;-0.25;69.43;97645.53;1816564;79;20932;-72
2020/12/27 11:03:11;;;;;;;20.50;10.15;;;;;;;-0.18;67.17;97640.11;1816544;79;21496;-72
2020/12/27 11:05:38;;;;;;;24.82;12.00;;;;;;;-0.10;69.06;97635.31;1816520;79;20913;-72
2020/12/27 11:08:07;;;;;;;40.45;15.65;;;;;;;-0.05;69.10;97623.48;1816369;79;21933;-73
2020/12/27 11:10:33;;;;;;;76.10;29.77;;;;;;;0.02;69.05;97615.43;1816486;78;21122;-74
2020/12/27 11:12:59;;;;;;;69.03;28.98;;;;;;;0.09;70.35;97608.70;1816389;79;21008;-74
2020/12/27 11:15:25;;;;;;;33.15;14.25;;;;;;;0.16;69.29;97602.23;1816468;78;20972;-74
2020/12/27 11:17:50;;;;;;;25.68;12.53;;;;;;;0.30;69.84;97592.76;1816284;78;20955;-74
2020/12/27 11:20:16;;;;;;;35.88;16.70;;;;;;;0.40;67.98;97580.52;1816494;78;20992;-74
2020/12/27 11:22:42;;;;;;;39.45;16.17;;;;;;;0.48;66.46;97556.21;1782407;79;20916;-74
2020/12/27 11:25:08;;;;;;;53.00;23.80;;;;;;;0.58;68.32;97560.18;1816342;78;21030;-73
2020/12/27 11:27:34;;;;;;;69.95;32.53;;;;;;;0.57;64.75;97559.38;1816499;78;21602;-74
2020/12/27 11:30:05;;;;;;;60.48;25.90;;;;;;;0.62;67.68;97557.38;1816405;79;21031;-73